aviador You're here:

KHJO Decoded Metar

HANFORD in CA, USA
Report Time2018-07-22 13:53:00
UTC Time2018-07-22 14:17:14
Flight Rules vfr VFR
Wind250° at 03 kt
W.Decomp.*RWY 32: 0.3 kt HW 3 kt LCW
W.Rank250° ranks 29
Current wind is below 250° avg. (4.4)
Visibility9999 m
Phenomena:N/A
Clouds:N/A
Expected CloudBase > 4,000 ft AGL from Temp-Dew spread
CeilingNone
Temp23°C (ISA +8)
Dew Point13°C (53% RH)
AAT22.8°C
QNH1017 hPa
Density Alt1,296 ft
Elevation243 ft
Report Wrong Elevation
Raw Report
KHJO 221353Z AUTO 25003KT 10SM CLR 23/13 A3002 RMK AO2 SLP166
T02330128=

Extra information for KHJO:More info

Metar Taf Metar & Taf Last 4 Metars F.Rules Stats Wind Profile Meteogram Temp Stats Airport Information Weather charts Add Link Nearby VenuesMetar ALERT Operation Metar Decoded Social comments

AIRNAV info for KHJO